Time;durP1;ratioP1;P1;durP2;ratioP2;P2;SDS_P1;SDS_P2;PMS_P1;PMS_P2;Temp;Humidity;BMP_temperature;BMP_pressure;BME280_temperature;BME280_humidity;BME280_pressure;Samples;Min_cycle;Max_cycle;Signal;HPM_P1;HPM_P2
2021/05/21 00:00:52;;;;;;;13.38;8.45;;;;;;;6.13;79.18;98162.89;1790857;80;21455;-76
2021/05/21 00:03:18;;;;;;;12.73;7.25;;;;;;;6.03;80.27;98160.05;1790821;80;20877;-76
2021/05/21 00:05:44;;;;;;;15.95;8.85;;;;;;;6.00;80.21;98153.30;1766345;80;20908;-76
2021/05/21 00:08:11;;;;;;;12.95;7.60;;;;;;;6.04;80.46;98161.14;1790855;80;21260;-76
2021/05/21 00:10:37;;;;;;;12.50;7.50;;;;;;;6.07;81.04;98161.20;1791183;80;20941;-77
2021/05/21 00:13:03;;;;;;;12.68;8.28;;;;;;;6.06;81.35;98157.67;1791165;79;20996;-77
2021/05/21 00:15:29;;;;;;;14.07;8.38;;;;;;;6.08;81.26;98154.77;1790976;79;21457;-77
2021/05/21 00:17:55;;;;;;;11.65;7.97;;;;;;;6.10;81.45;98153.97;1790847;80;20941;-77
2021/05/21 00:20:21;;;;;;;13.65;7.72;;;;;;;6.08;81.10;98153.41;1791086;80;21267;-77
2021/05/21 00:22:47;;;;;;;16.50;9.18;;;;;;;6.08;81.10;98153.41;1790913;79;20813;-77
2021/05/21 00:25:13;;;;;;;11.65;8.90;;;;;;;6.07;82.09;98159.86;1783039;80;21001;-77
2021/05/21 00:27:39;;;;;;;15.85;9.08;;;;;;;5.98;83.06;98157.28;1773913;81;20980;-76
2021/05/21 00:30:06;;;;;;;16.27;9.60;;;;;;;5.97;82.06;98152.43;1745556;81;20917;-76
2021/05/21 00:32:32;;;;;;;12.78;9.03;;;;;;;5.93;82.34;98152.12;1745418;81;21113;-76
2021/05/21 00:34:58;;;;;;;12.18;8.63;;;;;;;5.89;82.82;98148.78;1773746;81;20866;-76
2021/05/21 00:37:24;;;;;;;16.42;9.23;;;;;;;5.86;82.74;98150.63;1773794;81;21132;-76
2021/05/21 00:39:50;;;;;;;14.00;7.90;;;;;;;5.83;82.62;98147.09;1815023;78;20853;-76
2021/05/21 00:42:16;;;;;;;12.80;7.42;;;;;;;5.74;83.12;98150.72;1815039;79;21028;-77
2021/05/21 00:44:42;;;;;;;11.08;7.37;;;;;;;5.77;81.26;98150.22;1814883;79;21690;-77
2021/05/21 00:47:08;;;;;;;13.80;7.22;;;;;;;5.66;83.60;98149.79;1785921;79;21392;-77
2021/05/21 00:49:34;;;;;;;14.03;8.53;;;;;;;5.66;83.60;98149.79;1814952;79;20948;-77
2021/05/21 00:52:02;;;;;;;10.70;7.53;;;;;;;5.65;84.38;98142.25;1814853;79;21083;-77
2021/05/21 00:54:28;;;;;;;14.53;7.45;;;;;;;5.70;82.37;98140.69;1815035;79;20996;-77
2021/05/21 00:56:54;;;;;;;12.05;7.65;;;;;;;5.63;82.49;98144.35;1814796;79;21754;-77
2021/05/21 00:59:20;;;;;;;14.63;8.08;;;;;;;5.56;81.78;98137.53;1814748;79;20956;-77
2021/05/21 01:01:46;;;;;;;13.85;8.78;;;;;;;5.36;81.74;98129.40;1814860;79;20920;-77
2021/05/21 01:04:13;;;;;;;12.50;7.95;;;;;;;5.41;82.91;98144.00;1815118;78;20932;-77
2021/05/21 01:06:39;;;;;;;17.48;9.03;;;;;;;5.43;82.89;98140.00;1814892;79;20987;-77
2021/05/21 01:09:06;;;;;;;13.13;7.92;;;;;;;5.45;82.43;98136.53;1814862;78;21055;-77
2021/05/21 01:11:32;;;;;;;12.10;8.80;;;;;;;5.48;80.79;98136.06;1815039;79;21028;-76
2021/05/21 01:13:58;;;;;;;19.55;8.70;;;;;;;5.47;81.78;98136.28;1785670;79;20889;-76
2021/05/21 01:16:24;;;;;;;12.30;8.20;;;;;;;5.50;81.80;98143.88;1814850;78;20864;-76
2021/05/21 01:18:50;;;;;;;13.88;8.75;;;;;;;5.51;81.92;98141.47;1814847;78;21013;-76
2021/05/21 01:21:15;;;;;;;11.60;7.65;;;;;;;5.48;82.34;98141.97;1814827;79;21234;-76
2021/05/21 01:23:41;;;;;;;12.00;7.83;;;;;;;5.47;81.67;98139.81;1785590;79;20861;-76
2021/05/21 01:26:08;;;;;;;18.65;8.85;;;;;;;5.44;82.93;98141.63;1820970;78;20943;-76
2021/05/21 01:28:34;;;;;;;13.80;8.15;;;;;;;5.46;82.18;98139.50;1796157;78;21020;-76
2021/05/21 01:30:59;;;;;;;16.27;9.50;;;;;;;5.43;82.33;98144.56;1823743;78;20940;-77
2021/05/21 01:33:25;;;;;;;14.87;8.85;;;;;;;5.42;82.82;98142.94;1823732;78;21689;-77
2021/05/21 01:35:53;;;;;;;18.07;9.20;;;;;;;5.40;82.14;98132.44;1823730;78;20865;-77
2021/05/21 01:38:19;;;;;;;14.43;10.65;;;;;;;5.35;80.98;98135.02;1823705;78;21459;-76
2021/05/21 01:40:45;;;;;;;13.83;10.30;;;;;;;5.28;82.90;98132.48;1782171;80;20897;-76
2021/05/21 01:43:12;;;;;;;13.55;8.68;;;;;;;5.28;80.93;98133.02;1724230;82;20979;-76
2021/05/21 01:45:41;;;;;;;12.05;7.50;;;;;;;5.26;80.92;98124.39;1780282;80;20972;-76
2021/05/21 01:48:09;;;;;;;11.40;7.17;;;;;;;5.19;82.20;98118.35;1759252;81;20947;-77
2021/05/21 01:50:35;;;;;;;15.23;9.50;;;;;;;5.17;82.05;98128.00;1759589;81;20951;-76
2021/05/21 01:53:01;;;;;;;12.95;7.85;;;;;;;5.16;82.14;98130.41;1759476;81;20927;-76
2021/05/21 01:55:27;;;;;;;13.53;9.13;;;;;;;5.17;82.74;98137.41;1759248;81;21022;-76
2021/05/21 01:57:53;;;;;;;13.70;8.83;;;;;;;5.19;81.86;98127.75;1759287;81;21581;-77
2021/05/21 02:00:19;;;;;;;11.73;7.50;;;;;;;5.18;82.34;98128.28;1759305;81;20864;-77
2021/05/21 02:02:45;;;;;;;15.00;7.28;;;;;;;5.18;81.58;98130.16;1759431;81;20963;-77
2021/05/21 02:05:12;;;;;;;12.23;7.20;;;;;;;5.08;83.29;98118.18;1759254;81;21580;-77
2021/05/21 02:07:38;;;;;;;11.75;7.90;;;;;;;5.06;83.92;98122.17;1759340;81;21458;-77
2021/05/21 02:10:08;;;;;;;11.25;6.58;;;;;;;5.08;82.88;98122.20;1759229;81;21592;-77
2021/05/21 02:12:35;;;;;;;16.20;7.85;;;;;;;5.07;83.01;98122.45;1758946;81;20956;-77
2021/05/21 02:15:07;;;;;;;13.18;7.12;;;;;;;5.06;84.14;98109.55;1759644;81;21004;-76
2021/05/21 02:17:33;;;;;;;11.57;8.10;;;;;;;5.07;83.93;98107.69;1758629;81;21056;-76
2021/05/21 02:20:02;;;;;;;16.42;8.40;;;;;;;5.01;84.11;98108.11;1759348;81;21556;-76
2021/05/21 02:22:29;;;;;;;;;;;;;;;4.94;84.32;98107.97;1761816;81;21797;-76
2021/05/21 02:24:56;;;;;;;13.72;8.78;;;;;;;4.91;84.39;98116.52;1706695;81;20221;-76
2021/05/21 02:27:26;;;;;;;16.23;8.80;;;;;;;4.89;84.73;98118.64;1814754;79;20973;-76
2021/05/21 02:29:51;;;;;;;12.82;8.23;;;;;;;4.92;84.30;98121.64;1815072;78;21455;-76
2021/05/21 02:32:17;;;;;;;12.55;6.92;;;;;;;4.94;84.15;98120.87;1785427;79;21589;-76
2021/05/21 02:34:44;;;;;;;14.15;8.65;;;;;;;4.91;84.13;98124.05;1785488;79;21068;-76
2021/05/21 02:37:10;;;;;;;8.55;6.47;;;;;;;4.91;82.99;98123.23;1815068;79;20968;-76
2021/05/21 02:39:36;;;;;;;12.28;7.83;;;;;;;4.90;83.18;98125.10;1814848;79;20988;-76
2021/05/21 02:42:02;;;;;;;12.60;7.70;;;;;;;4.84;83.69;98124.71;1814847;79;21353;-76
2021/05/21 02:44:28;;;;;;;11.20;7.72;;;;;;;4.85;83.19;98120.97;1814913;78;20999;-76
2021/05/21 02:46:54;;;;;;;20.68;8.95;;;;;;;4.78;84.21;98123.79;1815274;79;21190;-76
2021/05/21 02:49:20;;;;;;;14.47;8.10;;;;;;;4.81;83.18;98134.60;1814781;79;20865;-76
2021/05/21 02:51:47;;;;;;;18.70;9.63;;;;;;;4.79;83.40;98128.13;1759809;79;21024;-77
2021/05/21 02:54:13;;;;;;;18.27;11.10;;;;;;;4.86;82.61;98128.49;1814798;78;21016;-76
2021/05/21 02:56:42;;;;;;;14.80;8.68;;;;;;;4.83;84.24;98130.33;1773850;80;20869;-76
2021/05/21 02:59:08;;;;;;;24.70;8.78;;;;;;;4.83;82.51;98128.45;1814807;79;21103;-76
2021/05/21 03:01:34;;;;;;;11.55;8.45;;;;;;;4.80;83.16;98119.55;1785416;79;20833;-76
2021/05/21 03:04:00;;;;;;;14.07;8.15;;;;;;;4.81;83.17;98118.49;1814844;79;21447;-76
2021/05/21 03:06:26;;;;;;;17.17;8.43;;;;;;;4.86;82.89;98123.12;1814864;79;20853;-76
2021/05/21 03:08:52;;;;;;;13.68;8.10;;;;;;;4.88;83.04;98121.04;1814900;78;20893;-76
2021/05/21 03:11:19;;;;;;;12.55;7.83;;;;;;;4.79;83.53;98115.23;1814891;78;21398;-76
2021/05/21 03:13:45;;;;;;;14.85;7.62;;;;;;;4.78;83.22;98118.95;1785409;79;21514;-76
2021/05/21 03:16:11;;;;;;;12.40;7.12;;;;;;;4.77;83.14;98115.45;1814766;79;20997;-76
2021/05/21 03:18:37;;;;;;;17.98;7.05;;;;;;;4.84;83.21;98111.81;1814854;78;20917;-76
2021/05/21 03:21:04;;;;;;;18.30;9.20;;;;;;;4.89;82.72;98114.61;1815012;79;21484;-76
2021/05/21 03:23:30;;;;;;;9.80;6.90;;;;;;;4.87;84.72;98111.33;1815015;79;21087;-76
2021/05/21 03:25:57;;;;;;;10.13;6.92;;;;;;;4.91;83.32;98113.30;1817886;78;20936;-76
2021/05/21 03:28:23;;;;;;;10.70;6.92;;;;;;;4.90;83.88;98108.99;1823839;78;21428;-76
2021/05/21 03:30:49;;;;;;;18.98;8.58;;;;;;;4.89;83.76;98106.55;1824060;78;21024;-76
2021/05/21 03:33:15;;;;;;;12.65;7.50;;;;;;;4.88;84.48;98101.71;1796219;78;20994;-76
2021/05/21 03:35:41;;;;;;;14.55;9.05;;;;;;;4.96;83.97;98101.33;1823974;78;21111;-76
2021/05/21 03:38:07;;;;;;;13.32;8.83;;;;;;;5.00;84.13;98096.27;1823854;78;20849;-76
2021/05/21 03:40:34;;;;;;;11.85;8.08;;;;;;;5.07;84.36;98105.81;1824053;78;21468;-76
2021/05/21 03:43:01;;;;;;;17.85;10.30;;;;;;;5.10;83.93;98095.10;1823795;78;20904;-76
2021/05/21 03:45:27;;;;;;;12.95;8.03;;;;;;;5.17;83.12;98100.33;1756154;80;21548;-76
2021/05/21 03:47:53;;;;;;;13.20;7.47;;;;;;;5.18;82.53;98101.42;1780342;80;21921;-76
2021/05/21 03:50:20;;;;;;;19.62;8.35;;;;;;;5.21;82.76;98106.33;1731396;81;21714;-76
2021/05/21 03:52:47;;;;;;;10.35;7.40;;;;;;;5.25;83.52;98107.45;1759275;81;20955;-76
2021/05/21 03:55:15;;;;;;;12.80;8.08;;;;;;;5.28;83.17;98100.77;1759534;81;20999;-76
2021/05/21 03:57:41;;;;;;;16.23;8.93;;;;;;;5.30;82.47;98104.05;1759672;81;20975;-76
2021/05/21 04:00:09;;;;;;;12.25;8.43;;;;;;;5.35;81.72;98102.25;1759511;81;20903;-76
2021/05/21 04:02:35;;;;;;;13.60;8.67;;;;;;;5.36;81.72;98103.06;1759563;81;20868;-77
2021/05/21 04:05:01;;;;;;;14.85;8.85;;;;;;;5.41;81.33;98103.69;1759565;81;21348;-76
2021/05/21 04:07:27;;;;;;;14.93;8.90;;;;;;;5.46;81.13;98102.41;1731647;81;20824;-76
2021/05/21 04:09:53;;;;;;;12.40;8.55;;;;;;;5.52;81.37;98102.78;1759495;81;20978;-76
2021/05/21 04:12:19;;;;;;;15.25;9.95;;;;;;;5.64;81.78;98098.14;1759414;81;21200;-76
2021/05/21 04:14:45;;;;;;;15.88;9.43;;;;;;;5.77;81.25;98100.48;1759394;81;20926;-76
2021/05/21 04:17:11;;;;;;;13.88;9.73;;;;;;;5.90;81.39;98095.30;1731648;81;21046;-76
2021/05/21 04:19:37;;;;;;;19.48;9.08;;;;;;;6.08;80.97;98092.35;1759391;81;21018;-76
2021/05/21 04:22:03;;;;;;;16.40;9.05;;;;;;;6.23;81.45;98088.48;1759341;81;20973;-76
2021/05/21 04:24:29;;;;;;;10.58;8.10;;;;;;;6.50;80.26;98089.92;1759373;81;21670;-76
2021/05/21 04:26:55;;;;;;;14.07;9.83;;;;;;;6.63;79.98;98090.59;1754512;81;20919;-76
2021/05/21 04:29:21;;;;;;;15.03;8.28;;;;;;;6.84;79.53;98092.98;1774397;80;21487;-76
2021/05/21 04:31:47;;;;;;;13.58;7.95;;;;;;;6.97;79.54;98093.91;1774814;80;20857;-76
2021/05/21 04:34:13;;;;;;;13.53;8.83;;;;;;;7.14;79.62;98089.76;1774816;80;20929;-76
2021/05/21 04:36:39;;;;;;;14.68;8.15;;;;;;;7.31;79.16;98095.84;1774702;80;20984;-76
2021/05/21 04:39:05;;;;;;;11.10;8.88;;;;;;;7.43;79.08;98093.77;1774350;80;21040;-76
2021/05/21 04:41:31;;;;;;;14.25;9.38;;;;;;;7.45;78.60;98083.57;1774400;80;20993;-76
2021/05/21 04:43:57;;;;;;;11.35;9.10;;;;;;;7.60;78.40;98082.84;1774259;80;20866;-76
2021/05/21 04:46:23;;;;;;;12.65;7.55;;;;;;;7.71;78.55;98081.06;1774269;80;21518;-76
2021/05/21 04:48:49;;;;;;;23.05;12.90;;;;;;;7.93;77.99;98083.88;1774631;80;21054;-76
2021/05/21 04:51:15;;;;;;;12.00;6.95;;;;;;;8.16;77.93;98081.32;1774366;80;20905;-76
2021/05/21 04:53:41;;;;;;;13.65;8.60;;;;;;;8.38;77.37;98086.59;1774372;80;20929;-76
2021/05/21 04:56:09;;;;;;;14.15;8.60;;;;;;;8.52;77.08;98076.09;1748237;80;21048;-76
2021/05/21 04:58:35;;;;;;;18.40;9.43;;;;;;;8.67;76.70;98071.30;1774328;80;20948;-76
2021/05/21 05:01:02;;;;;;;14.10;9.70;;;;;;;8.89;76.34;98075.95;1774352;80;21839;-76
2021/05/21 05:03:29;;;;;;;14.70;7.50;;;;;;;8.98;75.88;98068.13;1774479;80;21425;-76
2021/05/21 05:05:55;;;;;;;18.52;8.43;;;;;;;9.19;75.05;98072.47;1774694;80;20979;-76
2021/05/21 05:08:21;;;;;;;13.98;8.10;;;;;;;9.19;74.83;98072.47;1774317;80;20985;-76
2021/05/21 05:10:49;;;;;;;13.15;7.78;;;;;;;9.36;74.44;98076.81;1774476;80;20901;-76
2021/05/21 05:13:16;;;;;;;19.15;8.93;;;;;;;9.47;74.68;98068.95;1774284;80;21389;-77
2021/05/21 05:15:43;;;;;;;17.05;7.83;;;;;;;9.68;74.12;98065.71;1774305;80;21005;-76
2021/05/21 05:18:09;;;;;;;9.48;6.80;;;;;;;9.85;74.35;98070.28;1774262;80;21079;-76
2021/05/21 05:20:36;;;;;;;11.70;7.12;;;;;;;10.15;73.50;98064.78;1748086;80;21028;-76
2021/05/21 05:23:02;;;;;;;14.65;8.38;;;;;;;10.29;72.79;98060.98;1774260;80;20857;-76
2021/05/21 05:25:28;;;;;;;15.15;8.03;;;;;;;10.48;72.26;98056.30;1774425;80;21210;-76
2021/05/21 05:27:54;;;;;;;14.00;8.48;;;;;;;10.82;72.04;98052.33;1788574;80;21364;-76
2021/05/21 05:30:21;;;;;;;14.58;7.53;;;;;;;11.08;70.40;98054.33;1790983;80;21483;-76
2021/05/21 05:32:47;;;;;;;9.93;6.97;;;;;;;11.08;70.40;98054.33;1791158;80;20941;-76
2021/05/21 05:35:13;;;;;;;8.78;6.95;;;;;;;11.24;70.28;98058.56;1766357;80;20968;-76
2021/05/21 05:37:39;;;;;;;12.05;7.87;;;;;;;11.46;69.37;98062.20;1791013;80;21653;-76
2021/05/21 05:40:06;;;;;;;10.28;6.78;;;;;;;11.44;69.59;98053.51;1790821;80;21495;-76
2021/05/21 05:42:32;;;;;;;9.75;6.00;;;;;;;11.63;69.76;98055.00;1791225;79;21040;-76
2021/05/21 05:44:58;;;;;;;11.12;7.10;;;;;;;11.83;69.05;98055.63;1791381;79;21055;-76
2021/05/21 05:47:24;;;;;;;8.73;6.00;;;;;;;11.99;69.13;98049.50;1790984;80;20933;-76
2021/05/21 05:49:50;;;;;;;11.83;6.72;;;;;;;12.15;68.99;98046.07;1791040;79;21117;-76
2021/05/21 05:52:16;;;;;;;7.70;5.45;;;;;;;12.22;68.53;98038.91;1790861;80;20946;-76
2021/05/21 05:54:43;;;;;;;17.67;10.05;;;;;;;12.29;66.32;98041.54;1791343;80;21476;-76
2021/05/21 05:57:09;;;;;;;8.55;6.53;;;;;;;12.55;66.85;98038.50;1766357;80;21074;-76
2021/05/21 05:59:35;;;;;;;10.75;6.67;;;;;;;12.75;66.54;98034.73;1790796;79;20976;-76
2021/05/21 06:02:01;;;;;;;6.53;4.97;;;;;;;12.96;66.74;98028.69;1790927;79;21086;-76
2021/05/21 06:04:27;;;;;;;7.55;5.33;;;;;;;13.11;66.38;98025.48;1790887;80;21071;-76
2021/05/21 06:06:53;;;;;;;7.95;4.40;;;;;;;13.10;65.86;98023.32;1791226;80;21479;-76
2021/05/21 06:09:19;;;;;;;8.53;5.40;;;;;;;13.09;65.41;98029.87;1790767;79;21091;-76
2021/05/21 06:11:45;;;;;;;6.10;4.72;;;;;;;13.18;65.31;98031.37;1766238;80;21461;-76
2021/05/21 06:14:11;;;;;;;5.95;4.72;;;;;;;13.31;64.30;98029.82;1766257;80;21900;-76
2021/05/21 06:16:37;;;;;;;6.65;4.10;;;;;;;13.55;63.18;98026.42;1790652;80;21015;-77
2021/05/21 06:19:03;;;;;;;5.20;4.12;;;;;;;13.85;63.11;98017.47;1790863;80;21061;-77
2021/05/21 06:21:29;;;;;;;9.85;5.05;;;;;;;14.08;60.84;98015.91;1790783;80;21015;-77
2021/05/21 06:23:55;;;;;;;7.85;4.20;;;;;;;14.36;62.09;98015.37;1791055;79;20959;-77
2021/05/21 06:28:47;;;;;;;8.28;4.05;;;;;;;14.90;60.38;98002.76;1782147;80;21374;-77
2021/05/21 06:31:13;;;;;;;6.42;4.45;;;;;;;14.94;61.71;98001.02;1782597;80;20949;-77
2021/05/21 06:33:39;;;;;;;8.58;4.37;;;;;;;15.18;59.78;97993.91;1782397;80;20925;-77
2021/05/21 06:36:05;;;;;;;4.45;2.83;;;;;;;15.29;58.16;97991.72;1756287;80;21048;-77
2021/05/21 06:38:31;;;;;;;11.43;8.63;;;;;;;15.38;55.36;97985.79;1782270;80;20901;-77
2021/05/21 06:40:57;;;;;;;4.97;2.25;;;;;;;15.37;56.80;97988.80;1782109;80;20897;-77
2021/05/21 06:43:23;;;;;;;6.37;2.75;;;;;;;15.52;55.81;97991.16;1782284;80;20861;-77
2021/05/21 06:45:49;;;;;;;3.70;1.95;;;;;;;15.57;54.93;97979.31;1782174;80;21291;-77
2021/05/21 06:48:15;;;;;;;3.77;1.52;;;;;;;15.62;54.73;97974.53;1782293;80;20933;-77
2021/05/21 06:50:42;;;;;;;2.95;1.60;;;;;;;15.58;52.11;97971.36;1782390;80;21119;-77
2021/05/21 06:53:09;;;;;;;3.58;2.65;;;;;;;15.43;53.42;97972.55;1756136;80;21561;-77
2021/05/21 06:55:35;;;;;;;3.27;1.62;;;;;;;15.66;53.95;97967.34;1782157;80;21064;-77
2021/05/21 06:58:01;;;;;;;1.98;1.35;;;;;;;15.93;52.64;97966.33;1782285;80;21025;-77
2021/05/21 07:00:27;;;;;;;2.50;1.72;;;;;;;16.09;50.20;97953.05;1782251;80;21011;-77
2021/05/21 07:02:53;;;;;;;3.52;2.50;;;;;;;16.14;50.68;97952.08;1782305;80;21013;-77
2021/05/21 07:05:19;;;;;;;3.00;2.20;;;;;;;16.42;50.81;97949.34;1782100;80;21575;-77
2021/05/21 07:07:45;;;;;;;4.08;1.60;;;;;;;16.78;49.72;97946.34;1782205;80;20881;-77
2021/05/21 07:10:12;;;;;;;4.80;1.55;;;;;;;17.00;49.90;97941.25;1782164;80;21099;-77
2021/05/21 07:12:39;;;;;;;2.85;1.65;;;;;;;17.20;48.51;97941.17;1782343;80;20968;-77
2021/05/21 07:15:06;;;;;;;2.95;1.32;;;;;;;17.30;48.10;97942.76;1782244;80;21034;-77
2021/05/21 07:17:32;;;;;;;2.98;1.62;;;;;;;17.37;46.96;97932.92;1782163;80;21004;-77
2021/05/21 07:19:58;;;;;;;2.25;1.52;;;;;;;17.46;47.94;97927.42;1782316;80;21060;-77
2021/05/21 07:22:24;;;;;;;3.77;1.75;;;;;;;17.68;46.58;97937.33;1782156;80;21467;-78
2021/05/21 07:24:51;;;;;;;2.47;1.47;;;;;;;18.17;45.96;97931.73;1782208;80;20905;-78
2021/05/21 07:27:17;;;;;;;1.80;1.30;;;;;;;18.52;45.86;97933.69;1752617;81;21064;-78
2021/05/21 07:29:43;;;;;;;2.42;1.37;;;;;;;19.33;43.32;97926.09;1773758;81;21048;-78
2021/05/21 07:32:09;;;;;;;1.50;1.30;;;;;;;20.07;42.67;97916.81;1744055;81;21053;-76
2021/05/21 07:34:36;;;;;;;4.17;1.27;;;;;;;20.64;41.49;97923.32;1773709;81;21495;-76
2021/05/21 07:37:03;;;;;;;2.58;1.00;;;;;;;20.58;38.69;97914.49;1773696;81;21005;-76
2021/05/21 07:39:29;;;;;;;3.40;1.05;;;;;;;20.83;38.16;97914.65;1773551;81;21469;-77
2021/05/21 07:41:58;;;;;;;4.70;1.75;;;;;;;21.07;37.62;97901.37;1773608;81;21045;-77
2021/05/21 07:44:25;;;;;;;2.25;1.57;;;;;;;21.55;37.00;97904.25;1746258;81;21028;-77
2021/05/21 07:46:52;;;;;;;1.67;1.25;;;;;;;21.75;38.49;97901.02;1773612;81;20974;-77
2021/05/21 07:49:22;;;;;;;1.90;1.30;;;;;;;22.15;35.36;97902.22;1745514;81;21028;-77
2021/05/21 07:51:47;;;;;;;4.85;1.10;;;;;;;22.13;36.42;97903.14;1773490;81;21192;-77
2021/05/21 07:54:13;;;;;;;4.42;1.52;;;;;;;22.34;35.20;97895.37;1773600;81;20925;-77
2021/05/21 07:56:39;;;;;;;1.67;1.20;;;;;;;22.74;36.86;97903.35;1773610;81;20945;-77
2021/05/21 07:59:06;;;;;;;3.55;0.98;;;;;;;22.96;34.48;97894.94;1773742;81;20925;-77
2021/05/21 08:01:33;;;;;;;2.17;1.47;;;;;;;23.83;32.79;97895.38;1773876;81;21417;-77
2021/05/21 08:03:59;;;;;;;1.42;0.80;;;;;;;23.54;32.16;97898.21;1745220;80;21727;-77
2021/05/21 08:06:25;;;;;;;6.25;1.02;;;;;;;23.99;32.70;97884.17;1774354;81;20886;-77
2021/05/21 08:08:51;;;;;;;1.70;0.98;;;;;;;24.42;31.61;97884.25;1773898;81;20901;-77
2021/05/21 08:11:16;;;;;;;1.22;1.00;;;;;;;24.52;30.54;97886.96;1773852;81;21495;-77
2021/05/21 08:13:42;;;;;;;2.25;1.10;;;;;;;24.64;30.74;97886.16;1773903;81;20980;-77
2021/05/21 08:16:10;;;;;;;2.17;0.90;;;;;;;24.85;30.35;97886.21;1773775;81;21104;-77
2021/05/21 08:18:37;;;;;;;1.77;0.93;;;;;;;25.07;30.19;97889.48;1773997;81;20989;-78
2021/05/21 08:21:04;;;;;;;1.35;0.80;;;;;;;24.98;27.29;97880.64;1773799;80;21009;-78
2021/05/21 08:23:30;;;;;;;1.47;1.05;;;;;;;24.95;27.56;97869.73;1773827;81;21092;-77
2021/05/21 08:25:56;;;;;;;1.90;1.70;;;;;;;25.25;29.33;97879.98;1773861;81;21008;-78
2021/05/21 08:28:22;;;;;;;2.02;1.00;;;;;;;25.58;28.19;97863.28;1779418;80;21120;-77
2021/05/21 08:30:48;;;;;;;2.10;0.88;;;;;;;26.12;28.75;97861.75;1782380;80;21087;-77
2021/05/21 08:33:15;;;;;;;2.25;1.10;;;;;;;26.70;26.34;97862.33;1782326;80;21487;-77
2021/05/21 08:35:41;;;;;;;5.60;1.30;;;;;;;27.13;24.88;97865.29;1782283;80;20949;-77
2021/05/21 08:38:07;;;;;;;0.72;0.65;;;;;;;26.68;23.87;97859.14;1782497;80;20900;-77
2021/05/21 08:40:36;;;;;;;3.12;1.00;;;;;;;26.52;23.62;97860.05;1782248;80;21832;-77
2021/05/21 08:43:07;;;;;;;2.37;0.90;;;;;;;26.61;23.66;97852.75;1782214;80;21007;-77
2021/05/21 08:45:33;;;;;;;2.37;0.78;;;;;;;27.09;22.36;97836.70;1781079;80;20952;-77
2021/05/21 08:48:01;;;;;;;0.88;0.70;;;;;;;27.10;23.02;97843.84;1782284;80;21111;-77
2021/05/21 08:50:27;;;;;;;2.20;1.22;;;;;;;27.80;21.52;97843.76;1782231;80;21466;-77
2021/05/21 08:52:53;;;;;;;2.58;0.70;;;;;;;27.80;22.60;97839.58;1782298;80;21135;-77
2021/05/21 08:55:19;;;;;;;1.85;1.50;;;;;;;28.34;22.43;97843.11;1782349;80;21603;-77
2021/05/21 08:57:45;;;;;;;1.75;0.70;;;;;;;27.63;23.55;97836.17;1782321;80;20957;-77
2021/05/21 09:00:12;;;;;;;5.35;1.82;;;;;;;28.60;23.51;97838.27;1782734;80;21068;-77
2021/05/21 09:02:39;;;;;;;2.70;1.60;;;;;;;28.81;22.19;97834.02;1755909;80;20861;-77
2021/05/21 09:05:10;;;;;;;2.35;1.42;;;;;;;27.50;23.92;97839.13;1782182;80;21437;-77
2021/05/21 09:07:40;;;;;;;1.32;1.10;;;;;;;27.95;24.14;97841.77;1781663;80;20949;-78
2021/05/21 09:10:09;;;;;;;1.77;1.50;;;;;;;29.00;23.88;97830.56;1781122;80;20961;-77
2021/05/21 09:12:41;;;;;;;6.53;1.05;;;;;;;28.74;23.96;97833.25;1782296;80;21520;-77
2021/05/21 09:15:21;;;;;;;1.60;1.15;;;;;;;28.96;22.44;97834.75;1781167;80;20917;-78
2021/05/21 09:17:56;;;;;;;0.90;0.80;;;;;;;27.99;23.43;97830.62;1782181;80;21248;-78
2021/05/21 09:20:24;;;;;;;12.82;1.65;;;;;;;28.94;20.67;97826.00;1782117;80;21001;-77
2021/05/21 09:23:16;;;;;;;2.05;0.88;;;;;;;29.14;21.16;97822.09;1782230;80;21441;-77
2021/05/21 09:25:48;;;;;;;3.20;1.50;;;;;;;30.15;19.45;97813.18;1781799;80;21044;-77
2021/05/21 09:28:39;;;;;;;1.50;0.75;;;;;;;29.99;18.33;97816.49;1782342;80;20976;-77
2021/05/21 09:31:22;;;;;;;1.60;0.93;;;;;;;29.38;20.45;97812.78;1757091;80;21110;-76
2021/05/21 09:33:52;;;;;;;1.80;1.07;;;;;;;30.52;18.84;97806.20;1782142;80;20989;-76
2021/05/21 09:36:31;;;;;;;2.67;0.47;;;;;;;30.71;18.27;97803.39;1782287;80;21012;-78
2021/05/21 09:38:58;;;;;;;1.62;0.85;;;;;;;28.92;17.69;97807.50;1782219;80;20900;-77
2021/05/21 09:41:25;;;;;;;1.50;0.65;;;;;;;29.03;18.22;97802.64;1782284;80;21012;-77
2021/05/21 09:43:54;;;;;;;0.78;0.50;;;;;;;27.37;19.29;97802.56;1782334;80;21057;-77
2021/05/21 09:46:20;;;;;;;2.12;0.55;;;;;;;27.15;20.18;97804.51;1782157;80;21491;-77
2021/05/21 09:48:47;;;;;;;1.30;0.60;;;;;;;25.81;20.43;97791.56;1782223;80;20901;-77
2021/05/21 09:51:15;;;;;;;2.37;1.10;;;;;;;26.62;21.09;97791.83;1782294;80;21032;-77
2021/05/21 09:53:43;;;;;;;0.95;0.53;;;;;;;28.66;19.08;97795.64;1756186;80;21472;-77
2021/05/21 09:56:20;;;;;;;2.08;0.70;;;;;;;29.90;17.23;97787.65;1756437;80;21044;-77
2021/05/21 09:58:46;;;;;;;1.50;0.70;;;;;;;28.82;18.34;97784.02;1781614;80;21672;-77
2021/05/21 10:01:18;;;;;;;1.57;0.70;;;;;;;26.86;20.71;97789.73;1782320;80;20940;-77
2021/05/21 10:03:54;;;;;;;3.05;0.60;;;;;;;28.42;20.11;97779.02;1782217;80;20956;-78
2021/05/21 10:06:23;;;;;;;2.52;1.50;;;;;;;30.31;17.13;97781.27;1782209;80;20985;-76
2021/05/21 10:08:49;;;;;;;1.20;0.80;;;;;;;30.63;17.59;97779.50;1781403;80;21186;-77
2021/05/21 10:11:17;;;;;;;2.20;0.80;;;;;;;31.55;16.61;97771.04;1782313;80;21031;-78
2021/05/21 10:13:45;;;;;;;2.43;0.83;;;;;;;31.82;16.53;97761.20;1782536;80;20971;-77
2021/05/21 10:16:13;;;;;;;1.95;0.90;;;;;;;32.50;14.66;97765.72;1756616;80;21020;-77
2021/05/21 10:18:45;;;;;;;1.35;0.85;;;;;;;32.21;15.10;97761.24;1782285;80;21598;-77
2021/05/21 10:21:12;;;;;;;2.08;0.50;;;;;;;32.85;14.88;97768.23;1782333;80;21105;-77
2021/05/21 10:24:02;;;;;;;3.30;0.75;;;;;;;33.02;14.90;97762.22;1782235;80;21491;-77
2021/05/21 10:26:33;;;;;;;1.95;0.90;;;;;;;33.76;13.41;97754.65;1782311;80;20969;-78
2021/05/21 10:29:01;;;;;;;2.65;0.60;;;;;;;33.50;13.87;97738.26;1782214;80;21040;-78
2021/05/21 10:31:27;;;;;;;1.55;0.68;;;;;;;33.27;13.89;97738.39;1782279;80;21008;-78
2021/05/21 10:34:13;;;;;;;0.70;0.60;;;;;;;33.59;14.02;97728.59;1782442;80;21032;-78
2021/05/21 10:36:40;;;;;;;1.67;0.70;;;;;;;34.14;13.98;97720.33;1782329;80;21040;-77
2021/05/21 10:39:10;;;;;;;1.00;0.70;;;;;;;34.55;13.63;97713.17;1782308;80;20873;-78
2021/05/21 10:41:38;;;;;;;2.22;1.00;;;;;;;34.95;12.62;97715.78;1755818;80;21024;-78
2021/05/21 10:44:28;;;;;;;3.33;0.60;;;;;;;34.76;12.29;97715.32;1782520;80;21020;-78
2021/05/21 10:47:18;;;;;;;2.17;1.10;;;;;;;34.53;12.70;97708.00;1782687;80;21205;-78
2021/05/21 10:50:04;;;;;;;2.60;1.00;;;;;;;34.82;13.00;97703.69;1782257;80;21024;-78
2021/05/21 10:52:51;;;;;;;1.75;0.57;;;;;;;34.76;13.37;97702.66;1782900;80;21023;-77
2021/05/21 10:55:18;;;;;;;1.82;0.62;;;;;;;34.59;13.62;97701.18;1777342;80;20932;-77
2021/05/21 10:57:59;;;;;;;2.22;0.65;;;;;;;34.62;12.11;97693.27;1782403;80;20921;-76
2021/05/21 11:00:25;;;;;;;2.05;0.60;;;;;;;33.54;13.21;97678.56;1781492;80;21277;-78
2021/05/21 11:02:54;;;;;;;4.17;0.70;;;;;;;33.15;14.12;97671.09;1756068;80;20995;-78
2021/05/21 11:05:32;;;;;;;2.80;0.70;;;;;;;33.64;13.10;97684.52;1782184;80;21452;-78
2021/05/21 11:08:01;;;;;;;3.12;0.65;;;;;;;33.91;12.73;97672.18;1782185;80;21083;-78
2021/05/21 11:10:39;;;;;;;3.55;0.80;;;;;;;34.27;12.90;97663.55;1755124;80;21511;-77
2021/05/21 11:13:18;;;;;;;1.80;0.60;;;;;;;34.70;12.76;97661.66;1782261;80;21033;-77
2021/05/21 11:15:53;;;;;;;4.28;1.00;;;;;;;34.78;12.86;97660.20;1782228;80;21527;-78
2021/05/21 11:18:25;;;;;;;0.98;0.72;;;;;;;35.03;12.88;97649.55;1782137;80;21034;-78
2021/05/21 11:20:58;;;;;;;4.40;0.85;;;;;;;34.66;13.28;97646.11;1782253;80;21460;-78
2021/05/21 11:23:27;;;;;;;1.30;0.70;;;;;;;34.43;12.89;97644.40;1782222;80;20929;-78
2021/05/21 11:26:12;;;;;;;1.42;0.70;;;;;;;33.88;13.54;97633.13;1782175;80;21243;-78
2021/05/21 11:28:58;;;;;;;1.12;0.60;;;;;;;33.87;14.00;97629.33;1785333;80;20933;-78
2021/05/21 11:31:29;;;;;;;2.50;0.70;;;;;;;33.52;13.59;97617.84;1790892;80;20937;-78
2021/05/21 11:33:59;;;;;;;1.75;0.78;;;;;;;33.10;14.29;97615.52;1790739;80;20988;-78
2021/05/21 11:36:26;;;;;;;6.58;1.30;;;;;;;33.59;13.58;97607.83;1790730;79;20993;-78
2021/05/21 11:38:52;;;;;;;2.35;0.80;;;;;;;33.76;13.17;97608.56;1790787;80;21101;-78